Time;durP1;ratioP1;P1;durP2;ratioP2;P2;SDS_P1;SDS_P2;PMS_P1;PMS_P2;Temp;Humidity;BMP_temperature;BMP_pressure;BME280_temperature;BME280_humidity;BME280_pressure;Samples;Min_cycle;Max_cycle;Signal;HPM_P1;HPM_P2
2022/12/11 00:01:24;;;;;;;14.73;11.87;;;-0.50;99.90;;;;;;5008710;28;20264;-71
2022/12/11 00:03:50;;;;;;;15.23;11.97;;;-0.60;99.90;;;;;;5006973;28;20188;-70
2022/12/11 00:06:18;;;;;;;15.93;11.67;;;-0.60;99.90;;;;;;5011386;28;20182;-71
2022/12/11 00:08:44;;;;;;;12.80;9.90;;;-0.60;99.90;;;;;;5000908;28;20304;-72
2022/12/11 00:11:20;;;;;;;14.13;11.10;;;-0.60;99.90;;;;;;5011886;28;20239;-72
2022/12/11 00:13:46;;;;;;;16.77;11.33;;;-0.70;99.90;;;;;;5014310;28;20286;-72
2022/12/11 00:16:12;;;;;;;15.33;11.77;;;-0.70;99.90;;;;;;5006308;28;20315;-72
2022/12/11 00:18:37;;;;;;;15.70;11.83;;;-0.70;99.90;;;;;;5007202;28;20247;-71
2022/12/11 00:21:05;;;;;;;16.53;11.60;;;-0.70;99.90;;;;;;5016254;28;20197;-72
2022/12/11 00:23:31;;;;;;;19.83;11.77;;;-0.60;99.90;;;;;;5014170;28;20173;-71
2022/12/11 00:25:56;;;;;;;13.53;11.33;;;-0.60;99.90;;;;;;5009960;28;20204;-71
2022/12/11 00:28:22;;;;;;;15.97;11.57;;;-0.60;99.90;;;;;;5006455;28;20247;-72
2022/12/11 00:30:48;;;;;;;16.37;11.50;;;-0.60;99.90;;;;;;5006493;28;20280;-72
2022/12/11 00:33:14;;;;;;;15.60;11.87;;;-0.60;99.90;;;;;;5007162;28;20616;-72
2022/12/11 00:35:42;;;;;;;13.33;10.40;;;-0.70;99.90;;;;;;5003291;28;20189;-71
2022/12/11 00:38:12;;;;;;;13.73;11.43;;;-0.70;99.90;;;;;;5005190;28;20208;-72
2022/12/11 00:40:38;;;;;;;14.00;10.73;;;-0.70;99.90;;;;;;5009056;28;20698;-72
2022/12/11 00:43:04;;;;;;;13.80;10.80;;;-0.70;99.90;;;;;;5009483;28;20185;-72
2022/12/11 00:45:29;;;;;;;12.80;10.33;;;-0.60;99.90;;;;;;5003375;28;20522;-72
2022/12/11 00:47:55;;;;;;;14.23;11.20;;;-0.60;99.90;;;;;;5004013;28;20658;-72
2022/12/11 00:50:20;;;;;;;13.60;9.90;;;-0.60;99.90;;;;;;5002655;28;20653;-72
2022/12/11 00:52:46;;;;;;;13.07;10.10;;;-0.60;99.90;;;;;;5008284;28;20349;-72
2022/12/11 00:55:12;;;;;;;12.47;8.90;;;-0.50;99.90;;;;;;5000324;28;20189;-72
2022/12/11 00:57:38;;;;;;;14.37;10.90;;;-0.50;99.90;;;;;;4999644;28;20227;-70
2022/12/11 01:00:07;;;;;;;13.57;9.07;;;-0.50;99.90;;;;;;5003494;28;20193;-70
2022/12/11 01:02:33;;;;;;;13.53;9.83;;;-0.40;99.90;;;;;;4998247;28;20563;-71
2022/12/11 01:04:59;;;;;;;11.90;9.10;;;-0.40;99.90;;;;;;4995972;28;20193;-71
2022/12/11 01:07:25;;;;;;;14.03;10.37;;;-0.40;99.90;;;;;;5001924;28;20626;-71
2022/12/11 01:12:35;;;;;;;11.43;8.43;;;-0.40;99.90;;;;;;4995802;28;20194;-71
2022/12/11 01:15:00;;;;;;;10.60;8.10;;;-0.40;99.90;;;;;;4998857;28;20558;-72
2022/12/11 01:17:26;;;;;;;14.67;10.60;;;-0.40;99.90;;;;;;4999341;28;20201;-72
2022/12/11 01:19:54;;;;;;;12.50;9.67;;;-0.40;99.90;;;;;;4997882;28;20197;-71
2022/12/11 01:22:20;;;;;;;14.40;9.90;;;-0.40;99.90;;;;;;4998166;28;20182;-71
2022/12/11 01:24:46;;;;;;;13.60;10.17;;;-0.40;99.90;;;;;;5001065;28;20189;-71
2022/12/11 01:27:12;;;;;;;14.33;11.00;;;-0.40;99.90;;;;;;4996677;28;20222;-71
2022/12/11 01:29:37;;;;;;;12.67;10.17;;;-0.40;99.90;;;;;;4999167;28;20216;-71
2022/12/11 01:32:03;;;;;;;13.00;9.60;;;-0.40;99.90;;;;;;5004359;28;20648;-72
2022/12/11 01:34:30;;;;;;;13.27;10.73;;;-0.40;99.90;;;;;;4999651;28;20591;-71
2022/12/11 01:36:55;;;;;;;12.50;9.33;;;-0.40;99.90;;;;;;4998658;28;20248;-72
2022/12/11 01:39:21;;;;;;;14.07;7.87;;;-0.50;99.90;;;;;;5000159;28;20672;-72
2022/12/11 01:41:46;;;;;;;13.27;10.27;;;-0.50;99.90;;;;;;5003639;28;20178;-71
2022/12/11 01:44:15;;;;;;;13.33;10.47;;;-0.50;99.90;;;;;;5005039;28;20193;-71
2022/12/11 01:46:41;;;;;;;15.37;10.10;;;-0.50;99.90;;;;;;5004433;28;20229;-72
2022/12/11 01:49:11;;;;;;;14.10;10.30;;;-0.40;99.90;;;;;;4998061;28;20213;-73
2022/12/11 01:51:47;;;;;;;15.37;11.23;;;-0.50;99.90;;;;;;5005430;28;20728;-72
2022/12/11 01:54:16;;;;;;;13.43;9.33;;;-0.40;99.90;;;;;;5007165;28;20208;-71
2022/12/11 01:56:43;;;;;;;14.80;10.33;;;-0.50;99.90;;;;;;5011967;28;20186;-71
2022/12/11 01:59:10;;;;;;;13.60;10.33;;;-0.50;99.90;;;;;;5006379;28;20672;-71
2022/12/11 02:01:50;;;;;;;15.87;10.23;;;-0.60;99.90;;;;;;5001957;28;20181;-70
2022/12/11 02:04:17;;;;;;;12.33;9.90;;;-0.50;99.90;;;;;;5006718;28;20242;-71
2022/12/11 02:06:46;;;;;;;12.90;10.60;;;-0.60;99.90;;;;;;5008892;28;20656;-70
2022/12/11 02:09:16;;;;;;;14.43;11.20;;;-0.60;99.90;;;;;;5007881;28;20205;-71
2022/12/11 02:12:02;;;;;;;18.33;12.33;;;-0.70;99.90;;;;;;5004644;28;20728;-71
2022/12/11 02:14:45;;;;;;;14.40;10.37;;;-0.60;99.90;;;;;;5009742;28;20712;-71
2022/12/11 02:17:34;;;;;;;15.77;11.00;;;-0.60;99.90;;;;;;5006399;28;20273;-71
2022/12/11 02:20:22;;;;;;;15.87;11.57;;;-0.60;99.90;;;;;;5007754;28;20255;-70
2022/12/11 02:23:09;;;;;;;14.57;10.87;;;-0.60;99.90;;;;;;5007742;28;20516;-71
2022/12/11 02:25:40;;;;;;;16.13;11.73;;;-0.50;99.90;;;;;;5007851;28;20186;-71
2022/12/11 02:28:17;;;;;;;17.17;12.43;;;-0.40;99.90;;;;;;5008165;28;20206;-71
2022/12/11 02:30:49;;;;;;;12.83;10.50;;;-0.40;99.90;;;;;;5009262;28;20224;-71
2022/12/11 02:33:17;;;;;;;13.97;10.77;;;-0.50;99.90;;;;;;5010715;28;20202;-72
2022/12/11 02:35:45;;;;;;;16.47;10.80;;;-0.60;99.90;;;;;;5010406;28;20717;-72
2022/12/11 02:38:24;;;;;;;17.63;12.47;;;-0.70;99.90;;;;;;5012753;28;20516;-72
2022/12/11 02:40:51;;;;;;;15.83;11.57;;;-0.70;99.90;;;;;;5003797;28;20265;-71
2022/12/11 02:43:18;;;;;;;18.77;12.90;;;-0.80;99.90;;;;;;5006420;28;20192;-71
2022/12/11 02:45:45;;;;;;;17.17;12.23;;;-0.80;99.90;;;;;;5010589;28;20681;-71
2022/12/11 02:48:12;;;;;;;15.87;12.00;;;-1.00;99.90;;;;;;5004341;28;20212;-71
2022/12/11 02:50:42;;;;;;;14.73;10.87;;;-1.10;99.90;;;;;;5004883;28;20181;-71
2022/12/11 02:53:11;;;;;;;18.93;13.77;;;-1.10;99.90;;;;;;5004600;28;20208;-71
2022/12/11 02:55:37;;;;;;;19.83;13.73;;;-1.20;99.90;;;;;;5011362;28;20183;-71
2022/12/11 02:58:11;;;;;;;17.13;12.30;;;-1.40;99.90;;;;;;5002487;28;20217;-72
2022/12/11 03:00:36;;;;;;;19.53;12.63;;;-1.40;99.90;;;;;;5011271;28;20201;-71
2022/12/11 03:03:02;;;;;;;18.03;12.93;;;-1.40;99.90;;;;;;5006606;28;20213;-71
2022/12/11 03:05:29;;;;;;;18.60;12.40;;;-1.50;99.90;;;;;;5008538;28;20185;-71
2022/12/11 03:07:55;;;;;;;14.40;10.83;;;-1.60;99.90;;;;;;5008770;28;20225;-71
2022/12/11 03:10:21;;;;;;;17.50;12.07;;;-1.60;99.90;;;;;;5012939;28;20209;-71
2022/12/11 03:12:50;;;;;;;16.87;11.77;;;-1.60;99.90;;;;;;5009779;28;20189;-71
2022/12/11 03:15:20;;;;;;;14.23;10.93;;;-1.70;99.90;;;;;;5004809;28;20176;-71
2022/12/11 03:17:52;;;;;;;17.17;12.07;;;-1.70;99.90;;;;;;5009381;28;20702;-72
2022/12/11 03:20:32;;;;;;;16.17;11.40;;;-1.70;99.90;;;;;;5001316;28;20177;-71
2022/12/11 03:23:23;;;;;;;18.60;13.27;;;-1.70;99.90;;;;;;5001550;28;20557;-72
2022/12/11 03:25:57;;;;;;;17.03;11.37;;;-1.60;99.90;;;;;;5008952;28;20239;-71
2022/12/11 03:28:27;;;;;;;18.47;12.53;;;-1.60;99.90;;;;;;5005690;28;20243;-71
2022/12/11 03:30:55;;;;;;;17.63;12.60;;;-1.60;99.90;;;;;;5006918;28;20209;-72
2022/12/11 03:33:37;;;;;;;15.80;10.93;;;-1.70;99.90;;;;;;5000157;28;20260;-71
2022/12/11 03:36:09;;;;;;;17.47;12.60;;;-1.80;99.90;;;;;;5003732;28;20232;-71
2022/12/11 03:38:48;;;;;;;17.73;12.80;;;-1.80;99.90;;;;;;5011587;28;20205;-71
2022/12/11 03:41:16;;;;;;;17.73;14.00;;;-1.90;99.90;;;;;;5008568;28;20173;-71
2022/12/11 03:43:43;;;;;;;19.07;13.73;;;-1.90;99.90;;;;;;5008281;28;20185;-71
2022/12/11 03:46:11;;;;;;;18.57;14.03;;;-2.00;99.90;;;;;;5009769;28;20273;-72
2022/12/11 03:48:40;;;;;;;18.63;13.27;;;-2.10;99.90;;;;;;5005425;28;20215;-72
2022/12/11 03:51:07;;;;;;;15.63;11.63;;;-2.20;99.90;;;;;;5010903;28;20189;-72
2022/12/11 03:53:37;;;;;;;18.17;13.03;;;-2.30;99.90;;;;;;5002831;28;20241;-72
2022/12/11 03:56:05;;;;;;;18.17;13.50;;;-2.30;99.90;;;;;;5008103;28;20182;-72
2022/12/11 03:58:31;;;;;;;19.70;14.43;;;-2.30;99.90;;;;;;5008353;28;20201;-71
2022/12/11 04:00:57;;;;;;;20.07;12.73;;;-2.30;99.90;;;;;;5013286;28;20590;-71
2022/12/11 04:03:23;;;;;;;21.40;15.10;;;-2.30;99.90;;;;;;5000978;28;20240;-71
2022/12/11 04:05:51;;;;;;;21.00;13.90;;;-2.30;99.90;;;;;;5008533;28;20189;-71
2022/12/11 04:08:19;;;;;;;20.43;12.97;;;-2.40;99.90;;;;;;5007912;28;20231;-71
2022/12/11 04:10:45;;;;;;;19.50;14.07;;;-2.40;99.90;;;;;;5006232;28;20212;-71
2022/12/11 04:13:11;;;;;;;17.33;13.10;;;-2.40;99.90;;;;;;5006885;28;20205;-71
2022/12/11 04:15:38;;;;;;;20.57;12.93;;;-2.40;99.90;;;;;;4998864;28;20181;-71
2022/12/11 04:26:21;;;;;;;20.07;13.70;;;-2.40;99.90;;;;;;5000172;28;20213;-71
2022/12/11 04:28:47;;;;;;;17.87;12.50;;;-2.50;99.90;;;;;;5008823;28;20201;-71
2022/12/11 04:31:16;;;;;;;20.63;14.00;;;-2.50;99.90;;;;;;4999107;28;20189;-71
2022/12/11 04:33:42;;;;;;;19.93;13.73;;;-2.50;99.90;;;;;;4998100;28;20206;-71
2022/12/11 04:36:09;;;;;;;18.90;14.27;;;-2.50;99.90;;;;;;5008829;28;20198;-70
2022/12/11 04:38:35;;;;;;;19.70;13.57;;;-2.50;99.90;;;;;;4995471;28;20237;-71
2022/12/11 04:41:06;;;;;;;17.67;11.83;;;-2.60;99.90;;;;;;4999600;28;20178;-71
2022/12/11 04:43:31;;;;;;;20.40;13.80;;;-2.60;99.90;;;;;;5002512;28;20265;-71
2022/12/11 04:46:09;;;;;;;17.93;13.63;;;-2.60;99.90;;;;;;4999495;28;20273;-71
2022/12/11 04:48:35;;;;;;;19.10;14.30;;;-2.60;99.90;;;;;;5007068;28;20217;-71
2022/12/11 04:51:00;;;;;;;20.77;13.80;;;-2.60;99.90;;;;;;5000399;28;20280;-71
2022/12/11 04:53:27;;;;;;;20.83;14.40;;;-2.40;99.90;;;;;;4999690;28;20257;-72
2022/12/11 04:55:53;;;;;;;23.13;13.93;;;-2.30;99.90;;;;;;5003001;28;20240;-72
2022/12/11 04:58:18;;;;;;;21.53;14.70;;;-2.20;99.90;;;;;;5006936;28;20620;-71
2022/12/11 05:00:44;;;;;;;21.80;14.97;;;-2.20;99.90;;;;;;5005182;28;20577;-70
2022/12/11 05:03:10;;;;;;;18.67;14.13;;;-2.30;99.90;;;;;;5002644;28;20228;-71
2022/12/11 05:05:36;;;;;;;18.47;12.37;;;-2.20;99.90;;;;;;5012974;28;20596;-71
2022/12/11 05:08:01;;;;;;;24.30;15.33;;;-2.20;99.90;;;;;;5007018;28;20221;-71
2022/12/11 05:10:27;;;;;;;22.47;14.60;;;-2.20;99.90;;;;;;5009703;28;20181;-71
2022/12/11 05:12:52;;;;;;;20.97;15.07;;;-2.10;99.90;;;;;;5006218;28;20209;-71
2022/12/11 05:15:18;;;;;;;19.70;14.57;;;-2.10;99.90;;;;;;5018170;28;20209;-71
2022/12/11 05:17:43;;;;;;;20.43;14.13;;;-2.20;99.90;;;;;;5009560;28;20223;-71
2022/12/11 05:20:10;;;;;;;19.80;14.40;;;-2.30;99.90;;;;;;5008690;28;20185;-71
2022/12/11 05:22:36;;;;;;;17.53;11.47;;;-2.30;99.90;;;;;;5016974;28;20190;-71
2022/12/11 05:25:02;;;;;;;19.80;14.43;;;-2.20;99.90;;;;;;5006394;28;20209;-71
2022/12/11 05:27:28;;;;;;;20.90;14.70;;;-2.20;99.90;;;;;;5012158;28;20667;-71
2022/12/11 05:29:53;;;;;;;21.33;14.80;;;-2.10;99.90;;;;;;5006053;28;20181;-71
2022/12/11 05:32:19;;;;;;;12.97;9.00;;;-2.20;99.90;;;;;;5010436;28;20256;-71
2022/12/11 05:34:45;;;;;;;20.53;14.80;;;-2.20;99.90;;;;;;5002796;28;20246;-72
2022/12/11 05:37:10;;;;;;;21.10;14.60;;;-2.20;99.90;;;;;;5011278;28;20539;-71
2022/12/11 05:39:37;;;;;;;23.57;16.60;;;-2.20;99.90;;;;;;5005890;28;20223;-71
2022/12/11 05:42:03;;;;;;;22.17;14.43;;;-2.20;99.90;;;;;;5006928;28;20173;-71
2022/12/11 05:44:28;;;;;;;21.83;14.53;;;-2.30;99.90;;;;;;5006505;28;20193;-71
2022/12/11 05:46:54;;;;;;;18.67;13.37;;;-2.20;99.90;;;;;;5003218;28;20424;-71
2022/12/11 05:49:20;;;;;;;22.27;15.33;;;-2.20;99.90;;;;;;5007254;28;20264;-71
2022/12/11 05:51:46;;;;;;;18.57;13.80;;;-2.20;99.90;;;;;;5007356;28;20694;-72
2022/12/11 05:54:12;;;;;;;24.50;17.13;;;-2.30;99.90;;;;;;5009769;28;20213;-71
2022/12/11 05:56:38;;;;;;;16.00;10.60;;;-2.40;99.90;;;;;;5007547;28;20351;-72
2022/12/11 05:59:05;;;;;;;21.17;14.30;;;-2.40;99.90;;;;;;5006421;28;20288;-71
2022/12/11 06:01:37;;;;;;;19.77;14.80;;;-2.40;99.90;;;;;;5005707;28;20200;-71
2022/12/11 06:04:04;;;;;;;22.60;15.40;;;-2.50;99.90;;;;;;5002616;28;20201;-71
2022/12/11 06:06:30;;;;;;;19.63;13.70;;;-2.50;99.90;;;;;;5006368;28;20190;-71
2022/12/11 06:08:57;;;;;;;20.17;14.67;;;-2.50;99.90;;;;;;5008674;28;20272;-72
2022/12/11 06:11:25;;;;;;;19.13;11.17;;;-2.50;99.90;;;;;;4998120;28;20237;-72
2022/12/11 06:13:52;;;;;;;18.43;11.93;;;-2.40;99.90;;;;;;5004860;28;20578;-71
2022/12/11 06:16:18;;;;;;;21.83;12.03;;;-2.40;99.90;;;;;;5006913;28;20264;-71
2022/12/11 06:18:44;;;;;;;17.53;12.67;;;-2.40;99.90;;;;;;5007260;28;20213;-71
2022/12/11 06:21:22;;;;;;;20.83;13.77;;;-2.40;99.90;;;;;;5005454;28;20189;-71
2022/12/11 06:23:49;;;;;;;20.07;14.33;;;-2.40;99.90;;;;;;5003645;28;20182;-71
2022/12/11 06:26:15;;;;;;;22.60;14.10;;;-2.40;99.90;;;;;;5005000;28;20197;-71
2022/12/11 06:28:41;;;;;;;13.77;10.47;;;-2.40;99.90;;;;;;4997894;28;20228;-70
2022/12/11 06:31:07;;;;;;;19.83;13.87;;;-2.60;99.90;;;;;;5002107;28;20277;-71
2022/12/11 06:33:33;;;;;;;20.67;13.77;;;-2.50;99.90;;;;;;4997655;28;20198;-72
2022/12/11 06:36:07;;;;;;;20.77;14.50;;;-2.60;99.90;;;;;;5005077;28;20213;-71
2022/12/11 06:38:33;;;;;;;23.13;15.47;;;-2.60;99.90;;;;;;4996289;28;20723;-72
2022/12/11 06:41:03;;;;;;;21.50;13.73;;;-2.80;99.90;;;;;;5002330;28;20186;-71
2022/12/11 06:43:29;;;;;;;20.13;14.10;;;-2.80;99.90;;;;;;5002866;28;20228;-71
2022/12/11 06:45:55;;;;;;;23.60;17.00;;;-2.80;99.90;;;;;;4998305;28;20273;-71
2022/12/11 06:48:20;;;;;;;24.43;16.03;;;-2.80;99.90;;;;;;5000589;28;20284;-72
2022/12/11 06:50:46;;;;;;;20.57;14.23;;;-2.90;99.90;;;;;;4997316;28;20186;-71
2022/12/11 06:53:13;;;;;;;20.23;14.07;;;-2.90;99.90;;;;;;5001271;28;20743;-72
2022/12/11 06:55:40;;;;;;;19.80;14.10;;;-2.90;99.90;;;;;;4996691;28;20174;-71
2022/12/11 06:58:06;;;;;;;20.03;13.27;;;-2.80;99.90;;;;;;5002709;28;20231;-71
2022/12/11 07:00:35;;;;;;;21.57;14.30;;;-2.90;99.90;;;;;;5001021;28;20225;-71
2022/12/11 07:03:00;;;;;;;22.67;14.87;;;-2.80;99.90;;;;;;5002158;28;20192;-72
2022/12/11 07:05:26;;;;;;;19.87;14.63;;;-2.90;99.90;;;;;;5000109;28;20185;-72
2022/12/11 07:07:53;;;;;;;16.97;11.60;;;-2.90;99.90;;;;;;5002372;28;20220;-71
2022/12/11 07:10:19;;;;;;;23.27;15.73;;;-2.80;99.90;;;;;;5005449;28;20183;-71
2022/12/11 07:12:45;;;;;;;20.93;14.97;;;-2.80;99.90;;;;;;5005814;28;20197;-72
2022/12/11 07:15:10;;;;;;;20.80;14.73;;;-2.80;99.90;;;;;;5005259;28;20637;-73
2022/12/11 07:17:36;;;;;;;21.10;14.80;;;-2.80;99.90;;;;;;5007335;28;20229;-73
2022/12/11 07:20:03;;;;;;;20.67;15.27;;;-2.70;99.90;;;;;;4998575;28;20656;-72
2022/12/11 07:22:28;;;;;;;20.40;14.47;;;-2.70;99.90;;;;;;4994669;28;20190;-72
2022/12/11 07:24:54;;;;;;;22.73;14.93;;;-2.70;99.90;;;;;;5001210;28;20184;-77
2022/12/11 07:27:19;;;;;;;19.50;13.73;;;-2.60;99.90;;;;;;5001498;28;20222;-73
2022/12/11 07:29:45;;;;;;;23.37;16.67;;;-2.70;99.90;;;;;;5006020;28;21093;-72
2022/12/11 07:32:11;;;;;;;21.27;10.90;;;-2.60;99.90;;;;;;5008458;28;20192;-74
2022/12/11 07:34:36;;;;;;;21.63;15.03;;;-2.60;99.90;;;;;;4999824;28;20348;-72
2022/12/11 07:37:02;;;;;;;21.10;15.47;;;-2.50;99.90;;;;;;4998463;28;20189;-73
2022/12/11 07:39:28;;;;;;;18.63;13.60;;;-2.60;99.90;;;;;;5005634;28;20545;-72
2022/12/11 07:41:54;;;;;;;19.73;15.17;;;-2.50;99.90;;;;;;5000291;28;20178;-72
2022/12/11 07:44:19;;;;;;;19.83;13.53;;;-2.50;99.90;;;;;;5005945;28;20185;-76
2022/12/11 07:46:45;;;;;;;18.90;13.57;;;-2.40;99.90;;;;;;4997834;28;20204;-76
2022/12/11 07:49:17;;;;;;;17.70;13.53;;;-2.30;99.90;;;;;;5096434;27;20684;-77
2022/12/11 07:51:43;;;;;;;20.37;13.33;;;-2.30;99.90;;;;;;5094802;28;20503;-77
2022/12/11 07:54:15;;;;;;;19.93;13.80;;;-2.20;99.90;;;;;;5090521;28;20652;-77
2022/12/11 07:56:42;;;;;;;19.43;13.37;;;-2.00;99.90;;;;;;5091207;28;20231;-77
2022/12/11 07:59:08;;;;;;;17.83;12.20;;;-2.00;99.90;;;;;;5089939;28;20711;-72
2022/12/11 08:01:36;;;;;;;17.93;14.23;;;-1.80;99.90;;;;;;5092913;28;20253;-73
2022/12/11 08:04:04;;;;;;;21.07;13.93;;;-1.70;99.90;;;;;;5092361;28;20174;-74
2022/12/11 08:06:35;;;;;;;18.47;12.83;;;-1.80;99.90;;;;;;5099012;28;20183;-74
2022/12/11 08:09:03;;;;;;;19.03;14.37;;;-1.70;99.90;;;;;;5084277;28;20210;-74
2022/12/11 08:11:29;;;;;;;10.80;8.37;;;-1.70;99.90;;;;;;5086016;28;20229;-74
2022/12/11 08:13:55;;;;;;;16.33;12.03;;;-1.60;99.90;;;;;;5079701;28;20175;-75
2022/12/11 08:16:27;;;;;;;16.47;11.50;;;-1.50;99.90;;;;;;5080551;28;20254;-75
2022/12/11 08:18:53;;;;;;;17.13;12.70;;;-1.40;99.90;;;;;;5088045;28;20195;-75
2022/12/11 08:21:21;;;;;;;17.10;12.83;;;-1.30;99.90;;;;;;5075885;28;20236;-75
2022/12/11 08:23:47;;;;;;;18.10;13.73;;;-1.30;99.90;;;;;;5080459;28;20672;-75
2022/12/11 08:26:16;;;;;;;16.60;12.77;;;-1.20;99.90;;;;;;5086452;28;20227;-75
2022/12/11 08:28:43;;;;;;;18.73;13.83;;;-1.10;99.90;;;;;;5084171;28;20681;-75
2022/12/11 08:31:10;;;;;;;17.37;13.27;;;-1.00;99.90;;;;;;5088917;28;20183;-75
2022/12/11 08:33:37;;;;;;;15.60;11.93;;;-0.80;99.90;;;;;;5082250;28;20210;-76
2022/12/11 08:36:08;;;;;;;16.60;12.90;;;-0.60;99.90;;;;;;5088906;28;20179;-73
2022/12/11 08:38:34;;;;;;;16.40;12.73;;;-0.50;99.90;;;;;;5084270;28;20207;-75
2022/12/11 08:41:07;;;;;;;16.20;12.33;;;-0.50;99.90;;;;;;5085165;28;20174;-75
2022/12/11 08:43:33;;;;;;;15.30;11.93;;;-0.40;99.90;;;;;;5081236;28;20236;-75
2022/12/11 08:45:59;;;;;;;16.50;12.57;;;-0.40;99.90;;;;;;5086552;28;20265;-75
2022/12/11 08:48:24;;;;;;;14.73;12.60;;;-0.30;99.90;;;;;;5081276;28;20360;-75
2022/12/11 08:50:50;;;;;;;16.60;11.83;;;-0.20;99.90;;;;;;5083513;28;20182;-75
2022/12/11 08:53:15;;;;;;;13.03;10.83;;;-0.20;99.90;;;;;;5085429;28;20184;-75
2022/12/11 08:55:41;;;;;;;14.70;10.90;;;-0.10;99.90;;;;;;5081148;28;20163;-75
2022/12/11 08:58:06;;;;;;;14.20;11.60;;;0.20;99.90;;;;;;5082376;28;20249;-75
2022/12/11 09:00:32;;;;;;;14.47;10.83;;;0.40;99.90;;;;;;5071134;28;20254;-75
2022/12/11 09:02:58;;;;;;;14.07;10.93;;;0.40;99.90;;;;;;5067691;28;20180;-72
2022/12/11 09:05:23;;;;;;;14.73;11.17;;;0.60;99.90;;;;;;5070836;28;20189;-72
2022/12/11 09:07:49;;;;;;;15.70;11.10;;;0.90;99.90;;;;;;5076751;28;20685;-70
2022/12/11 09:10:14;;;;;;;13.20;11.40;;;1.20;99.90;;;;;;5070443;28;20182;-71
2022/12/11 09:12:40;;;;;;;14.50;10.40;;;1.60;99.90;;;;;;5078639;28;20558;-70
2022/12/11 09:15:06;;;;;;;13.43;10.97;;;1.90;99.90;;;;;;5067924;28;20210;-70
2022/12/11 09:17:33;;;;;;;11.53;10.33;;;1.80;99.90;;;;;;5077305;28;20241;-70
2022/12/11 09:19:59;;;;;;;13.00;10.40;;;1.90;99.90;;;;;;5076471;28;20207;-74
2022/12/11 09:22:24;;;;;;;11.80;10.10;;;1.70;99.90;;;;;;5075840;28;20207;-72
2022/12/11 09:24:50;;;;;;;12.30;10.80;;;1.90;99.90;;;;;;5078602;28;20728;-71
2022/12/11 09:27:15;;;;;;;9.00;7.27;;;2.00;99.90;;;;;;5071472;28;20204;-71
2022/12/11 09:29:41;;;;;;;12.50;10.17;;;2.30;99.90;;;;;;5072569;28;20650;-72
2022/12/11 09:32:07;;;;;;;12.05;9.23;;;2.50;99.90;;;;;;5076660;28;20174;-71
2022/12/11 09:34:32;;;;;;;12.57;9.83;;;2.50;99.90;;;;;;5063134;28;20176;-70
2022/12/11 09:36:58;;;;;;;12.73;10.23;;;2.40;99.90;;;;;;5080239;28;20179;-70
2022/12/11 09:39:24;;;;;;;11.67;9.43;;;2.30;99.90;;;;;;5075548;28;20188;-70
2022/12/11 09:42:26;;;;;;;11.50;10.30;;;2.30;99.90;;;;;;5078339;28;20697;-70
2022/12/11 09:44:59;;;;;;;8.40;6.97;;;2.10;99.90;;;;;;5077364;28;20629;-70
2022/12/11 09:47:51;;;;;;;12.90;10.63;;;2.00;99.90;;;;;;5070265;28;20734;-70
2022/12/11 09:50:22;;;;;;;13.03;11.20;;;1.90;99.90;;;;;;5073608;28;20195;-70
2022/12/11 09:53:17;;;;;;;9.13;7.60;;;1.80;99.90;;;;;;5084795;28;20171;-70
2022/12/11 09:56:03;;;;;;;9.67;8.33;;;1.80;99.90;;;;;;5075134;28;20232;-69
2022/12/11 09:58:41;;;;;;;11.93;9.07;;;1.70;99.90;;;;;;5065893;28;20239;-70
2022/12/11 10:01:18;;;;;;;12.47;10.07;;;1.80;99.90;;;;;;5069421;28;20653;-70
2022/12/11 10:04:04;;;;;;;12.27;10.15;;;1.90;99.90;;;;;;5074599;28;20265;-70
2022/12/11 10:06:47;;;;;;;11.63;9.57;;;2.00;99.90;;;;;;5071315;28;20266;-70
2022/12/11 10:09:18;;;;;;;11.10;8.87;;;2.00;99.90;;;;;;5075246;28;20553;-72
2022/12/11 10:12:05;;;;;;;13.60;9.87;;;1.90;99.90;;;;;;5073437;28;20175;-74
2022/12/11 10:14:37;;;;;;;14.40;10.23;;;1.80;99.90;;;;;;5073752;28;20272;-72
2022/12/11 10:17:11;;;;;;;11.67;10.13;;;1.70;99.90;;;;;;5068179;28;20172;-71
2022/12/11 10:19:38;;;;;;;12.53;11.13;;;1.90;99.90;;;;;;5074919;28;20187;-70
2022/12/11 10:22:11;;;;;;;11.63;7.70;;;1.90;99.90;;;;;;5067482;28;20192;-70
2022/12/11 10:24:43;;;;;;;11.23;9.63;;;2.00;99.90;;;;;;5075036;28;20175;-72
2022/12/11 10:27:18;;;;;;;13.60;9.43;;;1.90;99.90;;;;;;5074173;28;20618;-72
2022/12/11 10:29:45;;;;;;;9.90;8.90;;;2.00;99.90;;;;;;5072762;28;20168;-73
2022/12/11 10:32:23;;;;;;;11.77;9.93;;;2.30;99.90;;;;;;5069983;28;20178;-71
2022/12/11 10:34:54;;;;;;;13.33;10.17;;;2.90;99.90;;;;;;5078523;28;20166;-70
2022/12/11 10:37:19;;;;;;;12.35;9.98;;;3.50;99.90;;;;;;5080437;28;20192;-71
2022/12/11 10:39:45;;;;;;;10.38;9.10;;;4.10;99.90;;;;;;5072136;28;20259;-73
2022/12/11 10:42:18;;;;;;;8.30;6.97;;;4.50;99.90;;;;;;5069481;28;20178;-74
2022/12/11 10:45:04;;;;;;;11.07;8.55;;;4.60;99.90;;;;;;5081505;28;20179;-73
2022/12/11 10:47:32;;;;;;;12.23;9.70;;;4.90;99.90;;;;;;5074719;28;20246;-73
2022/12/11 10:50:00;;;;;;;11.18;9.70;;;5.60;99.90;;;;;;5071382;28;20528;-73
2022/12/11 10:52:39;;;;;;;10.30;9.20;;;6.30;99.90;;;;;;5079839;28;20223;-75
2022/12/11 10:55:17;;;;;;;10.68;8.40;;;6.70;99.90;;;;;;5079024;28;20232;-74
2022/12/11 10:57:44;;;;;;;10.20;9.10;;;6.90;99.90;;;;;;5079982;28;20201;-75
2022/12/11 11:00:36;;;;;;;7.55;6.22;;;7.10;99.90;;;;;;5076906;28;20226;-74
2022/12/11 11:03:04;;;;;;;7.88;6.97;;;6.70;99.90;;;;;;5072151;28;20617;-73
2022/12/11 11:05:36;;;;;;;8.57;7.63;;;6.60;99.90;;;;;;5073659;28;21147;-73
2022/12/11 11:08:21;;;;;;;7.75;6.47;;;6.30;99.90;;;;;;5065493;28;20232;-73
2022/12/11 11:10:54;;;;;;;8.20;7.40;;;6.00;99.90;;;;;;5076675;28;20182;-74
2022/12/11 11:13:22;;;;;;;7.90;7.10;;;5.80;99.90;;;;;;5073731;28;20262;-73
2022/12/11 11:15:48;;;;;;;7.90;7.10;;;6.00;99.90;;;;;;5073072;28;20166;-74
2022/12/11 11:18:25;;;;;;;8.00;7.20;;;5.70;99.90;;;;;;5069889;28;20736;-73
2022/12/11 11:20:51;;;;;;;9.25;7.63;;;5.40;99.90;;;;;;5075316;28;20185;-74
2022/12/11 11:23:20;;;;;;;8.68;7.28;;;4.70;99.90;;;;;;5085861;28;20245;-73
2022/12/11 11:25:55;;;;;;;6.97;6.25;;;4.00;99.90;;;;;;5076266;28;20179;-73
2022/12/11 11:28:32;;;;;;;7.53;6.63;;;3.60;99.90;;;;;;5073067;28;20235;-73
2022/12/11 11:31:10;;;;;;;8.57;7.05;;;3.10;99.90;;;;;;5067437;28;20646;-72
2022/12/11 11:33:44;;;;;;;8.27;7.40;;;2.60;99.90;;;;;;5080201;28;20166;-73
2022/12/11 11:36:20;;;;;;;8.82;6.72;;;2.10;99.90;;;;;;5071859;28;20624;-72
2022/12/11 11:38:57;;;;;;;8.48;6.90;;;2.10;99.90;;;;;;5077776;28;20228;-70
2022/12/11 11:41:26;;;;;;;8.70;7.30;;;2.10;99.90;;;;;;5063247;28;20210;-70
2022/12/11 11:43:58;;;;;;;6.97;5.95;;;2.20;99.90;;;;;;5067048;28;20548;-71
2022/12/11 11:46:39;;;;;;;8.73;7.63;;;2.10;99.90;;;;;;5065494;28;20650;-70
2022/12/11 11:49:16;;;;;;;6.13;5.53;;;1.80;99.90;;;;;;5069230;28;20200;-70
2022/12/11 11:51:50;;;;;;;6.80;6.20;;;1.80;99.90;;;;;;5062228;28;20179;-70
2022/12/11 11:54:38;;;;;;;6.83;6.13;;;1.60;99.90;;;;;;5069104;28;20171;-69
2022/12/11 11:57:21;;;;;;;7.70;6.37;;;1.30;99.90;;;;;;5072531;28;20261;-69
2022/12/11 11:59:53;;;;;;;5.47;4.97;;;1.20;99.90;;;;;;5068827;28;20209;-69
2022/12/11 12:02:19;;;;;;;6.60;5.90;;;1.20;99.90;;;;;;5067735;28;20162;-69
2022/12/11 12:04:45;;;;;;;5.40;4.90;;;1.30;99.90;;;;;;5071659;28;20182;-69
2022/12/11 12:07:38;;;;;;;7.63;6.20;;;1.40;99.90;;;;;;5065475;28;20179;-70
2022/12/11 12:10:16;;;;;;;5.93;5.43;;;1.30;99.90;;;;;;5077635;28;20253;-69
2022/12/11 12:13:25;;;;;;;5.00;4.50;;;1.30;99.90;;;;;;5080059;28;20182;-69
2022/12/11 12:15:57;;;;;;;4.63;4.20;;;1.40;99.90;;;;;;5076887;28;20461;-71
2022/12/11 12:18:47;;;;;;;5.67;5.13;;;1.50;99.90;;;;;;5070545;28;20210;-69
2022/12/11 12:21:26;;;;;;;3.90;3.60;;;2.60;99.90;;;;;;5076360;28;21292;-69
2022/12/11 12:24:30;;;;;;;4.10;3.75;;;3.20;99.90;;;;;;5074595;28;20178;-69
2022/12/11 12:27:18;;;;;;;4.40;4.00;;;3.50;99.90;;;;;;5070127;28;20273;-69
2022/12/11 12:30:11;;;;;;;4.43;4.03;;;4.30;99.90;;;;;;5070272;28;20184;-72
2022/12/11 12:32:48;;;;;;;3.88;3.58;;;5.30;96.80;;;;;;5076766;28;20171;-72
2022/12/11 12:35:37;;;;;;;3.83;3.53;;;5.40;96.80;;;;;;5071592;28;20250;-72
2022/12/11 12:38:12;;;;;;;4.22;3.83;;;6.00;95.80;;;;;;5067559;28;20226;-72
2022/12/11 12:40:54;;;;;;;4.32;3.65;;;6.70;93.70;;;;;;5070216;28;20181;-72
2022/12/11 12:43:30;;;;;;;4.13;3.50;;;7.30;91.80;;;;;;5073181;28;20800;-72
2022/12/11 12:45:55;;;;;;;3.90;3.58;;;7.70;89.40;;;;;;5077989;28;20638;-72
2022/12/11 12:48:23;;;;;;;4.82;4.43;;;7.30;86.70;;;;;;5086214;28;20279;-72
2022/12/11 12:50:50;;;;;;;3.72;3.38;;;6.80;88.80;;;;;;5072454;28;20254;-72
2022/12/11 12:53:20;;;;;;;4.47;4.07;;;6.00;90.10;;;;;;5077300;28;20180;-72
2022/12/11 12:55:48;;;;;;;3.80;3.50;;;5.40;90.10;;;;;;5073704;28;20176;-73
2022/12/11 12:58:34;;;;;;;4.47;4.07;;;5.00;91.80;;;;;;5080933;28;20236;-75
2022/12/11 13:01:19;;;;;;;4.10;3.75;;;4.60;92.80;;;;;;5075727;28;20217;-75